Time;durP1;ratioP1;P1;durP2;ratioP2;P2;SDS_P1;SDS_P2;PMS_P1;PMS_P2;Temp;Humidity;BMP_temperature;BMP_pressure;BME280_temperature;BME280_humidity;BME280_pressure;Samples;Min_cycle;Max_cycle;Signal;HPM_P1;HPM_P2
2023/05/23 00:00:58;;;;;;;35.30;22.25;;;;;;;;;;6258687;28;20036;-81
2023/05/23 00:04:00;;;;;;;31.20;21.58;;;;;;;;;;6260677;28;20160;-80
2023/05/23 00:07:03;;;;;;;31.60;21.65;;;;;;;;;;6261130;28;20419;-79
2023/05/23 00:10:05;;;;;;;34.20;20.90;;;;;;;;;;6258998;28;20095;-80
2023/05/23 00:13:13;;;;;;;33.90;22.60;;;;;;;;;;6273804;28;20137;-80
2023/05/23 00:16:15;;;;;;;32.75;21.23;;;;;;;;;;6251509;28;20048;-80
2023/05/23 00:19:17;;;;;;;29.63;20.38;;;;;;;;;;6261053;28;20511;-80
2023/05/23 00:22:18;;;;;;;32.22;21.48;;;;;;;;;;6256600;28;20041;-80
2023/05/23 00:25:20;;;;;;;33.13;21.35;;;;;;;;;;6260424;28;20037;-80
2023/05/23 00:28:22;;;;;;;33.28;21.40;;;;;;;;;;6252630;28;20045;-80
2023/05/23 00:31:24;;;;;;;33.15;22.10;;;;;;;;;;6260086;28;20053;-80
2023/05/23 00:34:26;;;;;;;31.83;20.63;;;;;;;;;;6258848;28;20067;-81
2023/05/23 00:37:27;;;;;;;33.22;20.95;;;;;;;;;;6234125;28;20128;-80
2023/05/23 00:40:29;;;;;;;30.13;20.08;;;;;;;;;;6253222;28;20052;-80
2023/05/23 00:43:31;;;;;;;30.67;20.00;;;;;;;;;;6255562;28;20050;-81
2023/05/23 00:46:32;;;;;;;27.60;18.70;;;;;;;;;;6255705;28;20044;-80
2023/05/23 00:49:34;;;;;;;22.52;16.60;;;;;;;;;;6262410;28;20414;-80
2023/05/23 00:52:37;;;;;;;25.02;16.63;;;;;;;;;;6254262;28;20060;-80
2023/05/23 00:55:39;;;;;;;28.65;16.75;;;;;;;;;;6245297;28;20041;-81
2023/05/23 00:58:41;;;;;;;26.50;16.90;;;;;;;;;;6257869;28;20056;-81
2023/05/23 01:01:45;;;;;;;25.30;17.33;;;;;;;;;;6251598;28;20551;-78
2023/05/23 01:04:53;;;;;;;23.73;16.77;;;;;;;;;;6260725;28;20072;-78
2023/05/23 01:07:55;;;;;;;24.05;15.63;;;;;;;;;;6271900;28;20069;-82
2023/05/23 01:11:03;;;;;;;23.55;15.32;;;;;;;;;;6238226;28;20204;-81
2023/05/23 01:14:20;;;;;;;22.85;15.68;;;;;;;;;;6253509;28;20049;-80
2023/05/23 01:17:30;;;;;;;21.75;14.80;;;;;;;;;;6260391;28;20518;-81
2023/05/23 01:20:50;;;;;;;21.42;14.98;;;;;;;;;;6272760;28;20045;-81
2023/05/23 01:23:55;;;;;;;23.38;15.20;;;;;;;;;;6271689;28;20064;-80
2023/05/23 01:27:10;;;;;;;22.75;15.10;;;;;;;;;;6259170;28;20041;-81
2023/05/23 01:30:18;;;;;;;22.27;14.88;;;;;;;;;;6252773;28;20046;-81
2023/05/23 01:33:21;;;;;;;22.83;15.10;;;;;;;;;;6265924;28;20042;-81
2023/05/23 01:36:24;;;;;;;22.17;15.15;;;;;;;;;;6254771;28;20060;-81
2023/05/23 01:39:26;;;;;;;25.55;14.38;;;;;;;;;;6250980;28;20506;-80
2023/05/23 01:42:28;;;;;;;21.85;14.73;;;;;;;;;;6251017;28;20534;-79
2023/05/23 01:45:30;;;;;;;21.30;15.30;;;;;;;;;;6237874;28;20051;-78
2023/05/23 01:48:32;;;;;;;23.63;15.37;;;;;;;;;;6262189;28;20044;-78
2023/05/23 01:51:34;;;;;;;24.20;15.15;;;;;;;;;;6263214;28;20393;-79
2023/05/23 01:54:38;;;;;;;23.02;15.20;;;;;;;;;;6254711;28;20060;-79
2023/05/23 01:57:41;;;;;;;23.33;15.18;;;;;;;;;;6260410;28;20044;-79
2023/05/23 02:00:43;;;;;;;23.83;14.57;;;;;;;;;;6248939;28;20052;-77
2023/05/23 02:03:45;;;;;;;19.73;13.57;;;;;;;;;;6258671;28;20567;-79
2023/05/23 02:06:46;;;;;;;24.65;14.77;;;;;;;;;;6249182;28;20044;-79
2023/05/23 02:09:48;;;;;;;22.92;14.35;;;;;;;;;;6253503;28;20052;-79
2023/05/23 02:12:50;;;;;;;20.75;14.15;;;;;;;;;;6251985;28;20060;-79
2023/05/23 02:15:52;;;;;;;21.38;14.50;;;;;;;;;;6256075;28;20162;-79
2023/05/23 02:18:55;;;;;;;23.85;14.60;;;;;;;;;;6255465;28;20048;-79
2023/05/23 02:21:56;;;;;;;18.88;13.77;;;;;;;;;;6251149;28;20090;-79
2023/05/23 02:24:58;;;;;;;21.15;13.60;;;;;;;;;;6239278;28;20052;-79
2023/05/23 02:28:00;;;;;;;21.73;12.32;;;;;;;;;;6252805;28;20130;-79
2023/05/23 02:31:01;;;;;;;19.50;12.82;;;;;;;;;;6255839;28;20080;-80
2023/05/23 02:34:03;;;;;;;17.67;11.80;;;;;;;;;;6256108;28;20131;-80
2023/05/23 02:37:05;;;;;;;20.48;12.02;;;;;;;;;;6254691;28;20044;-79
2023/05/23 02:40:07;;;;;;;18.65;12.07;;;;;;;;;;6252376;28;20415;-80
2023/05/23 02:43:10;;;;;;;18.90;12.48;;;;;;;;;;6254271;28;20119;-80
2023/05/23 02:46:12;;;;;;;20.85;12.50;;;;;;;;;;6258755;28;20041;-79
2023/05/23 02:49:14;;;;;;;18.77;11.85;;;;;;;;;;6253433;28;20388;-80
2023/05/23 02:52:16;;;;;;;16.83;11.32;;;;;;;;;;6240934;28;20041;-80
2023/05/23 02:55:18;;;;;;;14.88;9.93;;;;;;;;;;6260624;28;20687;-78
2023/05/23 02:58:22;;;;;;;16.48;10.52;;;;;;;;;;6267893;28;20351;-78
2023/05/23 03:01:24;;;;;;;16.42;10.82;;;;;;;;;;6265664;28;20048;-78
2023/05/23 03:04:26;;;;;;;15.23;10.77;;;;;;;;;;6248522;28;20053;-79
2023/05/23 03:07:29;;;;;;;14.05;9.40;;;;;;;;;;6243537;28;20055;-80
2023/05/23 03:10:30;;;;;;;13.57;8.68;;;;;;;;;;6239984;28;20052;-78
2023/05/23 03:13:36;;;;;;;13.35;8.63;;;;;;;;;;6257281;28;20822;-79
2023/05/23 03:16:38;;;;;;;13.43;8.52;;;;;;;;;;6236841;28;20180;-80
2023/05/23 03:19:40;;;;;;;13.73;8.35;;;;;;;;;;6228633;28;20041;-80
2023/05/23 03:22:44;;;;;;;11.53;7.37;;;;;;;;;;6254493;28;20056;-79
2023/05/23 03:25:46;;;;;;;12.05;7.38;;;;;;;;;;6254687;28;20049;-79
2023/05/23 03:28:50;;;;;;;10.90;6.60;;;;;;;;;;6250606;28;20041;-80
2023/05/23 03:31:53;;;;;;;10.88;7.35;;;;;;;;;;6252734;28;20094;-80
2023/05/23 03:34:55;;;;;;;9.77;6.93;;;;;;;;;;6237738;28;20062;-80
2023/05/23 03:37:57;;;;;;;10.27;7.35;;;;;;;;;;6246869;28;20518;-81
2023/05/23 03:40:58;;;;;;;8.70;6.65;;;;;;;;;;6236810;28;20147;-81
2023/05/23 03:44:00;;;;;;;9.95;6.75;;;;;;;;;;6252150;28;20057;-81
2023/05/23 03:47:02;;;;;;;9.73;6.50;;;;;;;;;;6259105;28;20068;-80
2023/05/23 03:50:05;;;;;;;8.63;6.13;;;;;;;;;;6254894;28;20095;-80
2023/05/23 03:53:08;;;;;;;8.30;6.20;;;;;;;;;;6242083;28;20743;-80
2023/05/23 03:56:10;;;;;;;7.63;5.60;;;;;;;;;;6243563;28;20043;-80
2023/05/23 03:59:12;;;;;;;7.70;5.13;;;;;;;;;;6254051;28;20038;-78
2023/05/23 04:02:14;;;;;;;7.43;5.63;;;;;;;;;;6238963;28;20041;-80
2023/05/23 04:05:16;;;;;;;5.63;3.97;;;;;;;;;;6269979;28;20103;-80
2023/05/23 04:08:20;;;;;;;5.25;4.53;;;;;;;;;;6251304;28;20049;-80
2023/05/23 04:11:24;;;;;;;5.47;4.05;;;;;;;;;;6237471;28;20072;-80
2023/05/23 04:14:27;;;;;;;6.88;4.13;;;;;;;;;;6252125;28;20053;-81
2023/05/23 04:17:31;;;;;;;5.00;4.45;;;;;;;;;;6251597;28;20060;-79
2023/05/23 04:20:33;;;;;;;4.90;4.10;;;;;;;;;;6257407;28;20044;-80
2023/05/23 04:23:35;;;;;;;5.82;3.95;;;;;;;;;;6255317;28;20637;-81
2023/05/23 04:26:38;;;;;;;5.43;4.37;;;;;;;;;;6273661;28;20045;-81
2023/05/23 04:29:40;;;;;;;7.72;4.90;;;;;;;;;;6243884;28;20052;-80
2023/05/23 04:32:42;;;;;;;7.32;4.28;;;;;;;;;;6260936;28;20550;-79
2023/05/23 04:35:44;;;;;;;6.00;3.97;;;;;;;;;;6255467;28;20057;-79
2023/05/23 04:38:47;;;;;;;5.57;4.10;;;;;;;;;;6256826;28;20052;-79
2023/05/23 04:41:49;;;;;;;4.33;3.70;;;;;;;;;;6242200;28;20130;-81
2023/05/23 04:45:10;;;;;;;4.80;4.30;;;;;;;;;;6259876;28;20532;-79
2023/05/23 04:48:47;;;;;;;6.35;3.92;;;;;;;;;;6252431;28;20040;-80
2023/05/23 04:51:49;;;;;;;4.60;3.80;;;;;;;;;;6255367;28;20152;-79
2023/05/23 04:55:00;;;;;;;4.50;3.90;;;;;;;;;;6258661;28;20167;-81
2023/05/23 04:58:02;;;;;;;7.63;4.05;;;;;;;;;;6254272;28;20056;-80
2023/05/23 05:01:05;;;;;;;4.28;3.80;;;;;;;;;;6257955;28;20072;-81
2023/05/23 05:04:07;;;;;;;;;;;;;;;;;;6249888;28;20068;-80
2023/05/23 05:07:09;;;;;;;6.40;4.10;;;;;;;;;;6261045;28;20342;-80
2023/05/23 05:10:15;;;;;;;6.07;4.30;;;;;;;;;;6255814;28;20037;-80
2023/05/23 05:13:18;;;;;;;5.60;4.60;;;;;;;;;;6274826;28;20477;-83
2023/05/23 05:16:23;;;;;;;7.13;4.30;;;;;;;;;;6240870;28;20053;-82
2023/05/23 05:19:25;;;;;;;7.07;4.70;;;;;;;;;;6242348;28;20046;-82
2023/05/23 05:22:27;;;;;;;9.07;4.88;;;;;;;;;;6256503;28;20074;-82
2023/05/23 05:25:31;;;;;;;8.98;5.45;;;;;;;;;;6258335;28;20048;-80
2023/05/23 05:28:33;;;;;;;7.57;4.63;;;;;;;;;;6241216;28;20056;-81
2023/05/23 05:31:34;;;;;;;6.60;4.82;;;;;;;;;;6255030;28;20045;-82
2023/05/23 05:34:38;;;;;;;10.40;5.72;;;;;;;;;;6256425;28;20041;-82
2023/05/23 05:37:40;;;;;;;7.13;5.10;;;;;;;;;;6242760;28;20064;-82
2023/05/23 05:40:43;;;;;;;9.20;4.95;;;;;;;;;;6258024;28;20049;-81
2023/05/23 05:43:45;;;;;;;6.57;4.50;;;;;;;;;;6260764;28;20510;-82
2023/05/23 05:46:48;;;;;;;6.35;4.70;;;;;;;;;;6258074;28;20067;-81
2023/05/23 05:49:49;;;;;;;5.82;4.03;;;;;;;;;;6258006;28;20551;-82
2023/05/23 05:52:51;;;;;;;7.15;4.50;;;;;;;;;;6241514;28;20051;-80
2023/05/23 05:55:53;;;;;;;5.85;4.38;;;;;;;;;;6267988;28;20056;-80
2023/05/23 05:58:56;;;;;;;8.88;4.68;;;;;;;;;;6257880;28;20596;-80
2023/05/23 06:01:58;;;;;;;5.15;4.28;;;;;;;;;;6260860;28;20037;-81
2023/05/23 06:04:59;;;;;;;6.65;4.70;;;;;;;;;;6257227;28;20503;-81
2023/05/23 06:08:03;;;;;;;5.07;3.90;;;;;;;;;;6251085;28;20517;-81
2023/05/23 06:11:04;;;;;;;5.63;4.60;;;;;;;;;;6275119;28;20114;-81
2023/05/23 06:14:07;;;;;;;7.22;4.15;;;;;;;;;;6259681;28;20052;-82
2023/05/23 06:17:11;;;;;;;5.47;3.95;;;;;;;;;;6262666;28;20411;-81
2023/05/23 06:20:15;;;;;;;6.93;4.30;;;;;;;;;;6259812;28;20064;-81
2023/05/23 06:23:19;;;;;;;6.15;4.20;;;;;;;;;;6237833;28;20131;-82
2023/05/23 06:26:21;;;;;;;6.80;3.97;;;;;;;;;;6254967;28;20041;-82
2023/05/23 06:29:25;;;;;;;5.05;4.10;;;;;;;;;;6259854;28;20049;-82
2023/05/23 06:32:29;;;;;;;;;;;;;;;;;;6257033;28;20179;-82
2023/05/23 06:35:31;;;;;;;7.60;4.90;;;;;;;;;;6237899;28;19921;-82
2023/05/23 06:38:34;;;;;;;7.95;5.15;;;;;;;;;;6258657;28;20041;-82
2023/05/23 06:41:37;;;;;;;7.47;5.07;;;;;;;;;;6239228;28;20041;-81
2023/05/23 06:44:39;;;;;;;7.95;4.93;;;;;;;;;;6254087;28;20040;-82
2023/05/23 06:47:44;;;;;;;8.00;5.85;;;;;;;;;;6242459;28;20121;-82
2023/05/23 06:50:46;;;;;;;9.10;5.97;;;;;;;;;;6248782;28;20052;-82
2023/05/23 06:53:49;;;;;;;7.55;5.68;;;;;;;;;;6270182;28;20526;-81
2023/05/23 06:56:51;;;;;;;8.17;6.07;;;;;;;;;;6261946;28;20108;-80
2023/05/23 06:59:53;;;;;;;8.00;5.97;;;;;;;;;;6266805;28;20100;-82
2023/05/23 07:02:59;;;;;;;7.03;5.75;;;;;;;;;;6257003;28;20049;-82
2023/05/23 07:06:02;;;;;;;9.90;5.80;;;;;;;;;;6243000;28;20041;-82
2023/05/23 07:09:05;;;;;;;8.15;5.85;;;;;;;;;;6234120;28;20049;-82
2023/05/23 07:12:06;;;;;;;8.45;5.25;;;;;;;;;;6248832;28;20041;-79
2023/05/23 07:15:13;;;;;;;8.60;5.47;;;;;;;;;;6251155;28;20056;-81
2023/05/23 07:18:24;;;;;;;6.88;5.32;;;;;;;;;;6251644;28;20049;-80
2023/05/23 07:21:26;;;;;;;6.80;4.95;;;;;;;;;;6253864;28;20041;-79
2023/05/23 07:24:28;;;;;;;5.88;4.90;;;;;;;;;;6267440;28;20037;-82
2023/05/23 07:27:31;;;;;;;9.85;5.50;;;;;;;;;;6266240;28;20533;-82
2023/05/23 07:30:33;;;;;;;6.50;5.15;;;;;;;;;;6236139;28;20151;-82
2023/05/23 07:33:34;;;;;;;7.70;5.60;;;;;;;;;;6248319;28;20042;-81
2023/05/23 07:36:39;;;;;;;6.18;5.22;;;;;;;;;;6237584;28;20052;-81
2023/05/23 07:39:44;;;;;;;7.78;5.70;;;;;;;;;;6236130;28;20045;-82
2023/05/23 07:42:46;;;;;;;9.43;5.70;;;;;;;;;;6230765;28;20411;-81
2023/05/23 07:45:48;;;;;;;7.20;5.30;;;;;;;;;;6242970;28;20098;-82
2023/05/23 07:48:50;;;;;;;8.23;5.13;;;;;;;;;;6251984;28;20041;-82
2023/05/23 07:51:52;;;;;;;8.73;5.60;;;;;;;;;;6240709;28;20044;-82
2023/05/23 07:54:54;;;;;;;9.10;5.10;;;;;;;;;;6268239;28;20049;-81
2023/05/23 07:57:56;;;;;;;7.60;5.03;;;;;;;;;;6246788;28;20048;-81
2023/05/23 08:00:59;;;;;;;7.25;4.95;;;;;;;;;;6249174;28;20052;-82
2023/05/23 08:04:24;;;;;;;8.38;5.30;;;;;;;;;;6248549;28;20053;-81
2023/05/23 08:07:27;;;;;;;6.07;4.82;;;;;;;;;;6258111;28;20055;-81
2023/05/23 08:10:34;;;;;;;8.07;4.82;;;;;;;;;;6239694;28;20465;-81
2023/05/23 08:13:42;;;;;;;10.57;4.70;;;;;;;;;;6239211;28;20101;-82
2023/05/23 08:17:11;;;;;;;9.65;4.68;;;;;;;;;;6248610;28;20060;-80
2023/05/23 08:20:15;;;;;;;6.72;4.38;;;;;;;;;;6273554;28;20108;-81
2023/05/23 08:23:19;;;;;;;5.78;4.47;;;;;;;;;;6277522;28;20051;-80
2023/05/23 08:26:21;;;;;;;6.70;4.80;;;;;;;;;;6257491;28;20045;-82
2023/05/23 08:29:24;;;;;;;9.77;5.15;;;;;;;;;;6248201;28;20522;-82
2023/05/23 08:32:26;;;;;;;6.50;4.40;;;;;;;;;;6262101;28;20057;-82
2023/05/23 08:35:32;;;;;;;6.65;4.18;;;;;;;;;;6252757;28;20202;-81
2023/05/23 08:38:34;;;;;;;6.63;4.80;;;;;;;;;;6250456;28;20042;-81
2023/05/23 08:41:44;;;;;;;6.13;4.28;;;;;;;;;;6266772;28;20045;-82
2023/05/23 08:44:46;;;;;;;6.95;4.60;;;;;;;;;;6239044;28;20045;-81
2023/05/23 08:47:54;;;;;;;5.93;4.80;;;;;;;;;;6240601;28;20045;-82
2023/05/23 08:50:58;;;;;;;6.03;4.95;;;;;;;;;;6259595;28;20048;-81
2023/05/23 08:54:01;;;;;;;8.25;4.57;;;;;;;;;;6255692;28;20048;-81
2023/05/23 08:57:04;;;;;;;7.80;4.40;;;;;;;;;;6269575;28;20044;-81
2023/05/23 09:00:15;;;;;;;5.68;4.28;;;;;;;;;;6250430;28;20171;-80
2023/05/23 09:03:17;;;;;;;7.00;4.68;;;;;;;;;;6232276;28;20098;-81
2023/05/23 09:06:35;;;;;;;7.05;4.57;;;;;;;;;;6252097;28;20048;-81
2023/05/23 09:09:37;;;;;;;7.85;5.45;;;;;;;;;;6257995;28;20251;-82
2023/05/23 09:12:42;;;;;;;7.18;5.38;;;;;;;;;;6244596;28;20052;-80
2023/05/23 09:16:16;;;;;;;7.82;5.57;;;;;;;;;;6255256;28;20403;-81
2023/05/23 09:19:28;;;;;;;6.63;4.50;;;;;;;;;;6231366;28;20135;-80
2023/05/23 09:22:36;;;;;;;6.05;3.85;;;;;;;;;;6265420;28;20034;-81
2023/05/23 09:25:47;;;;;;;5.15;4.28;;;;;;;;;;6259734;28;20533;-81
2023/05/23 09:28:50;;;;;;;5.60;4.07;;;;;;;;;;6256350;28;20052;-81
2023/05/23 09:31:59;;;;;;;4.60;3.53;;;;;;;;;;6253753;28;20056;-82
2023/05/23 09:35:06;;;;;;;6.28;3.72;;;;;;;;;;6253058;28;20503;-82
2023/05/23 09:38:07;;;;;;;5.07;3.70;;;;;;;;;;6253110;28;20048;-80
2023/05/23 09:41:12;;;;;;;5.00;3.35;;;;;;;;;;6235611;28;20045;-81
2023/05/23 09:44:22;;;;;;;3.15;2.83;;;;;;;;;;6269121;28;20044;-81
2023/05/23 09:47:25;;;;;;;3.00;2.58;;;;;;;;;;6271490;28;20053;-81
2023/05/23 09:50:34;;;;;;;;;;;;;;;;;;6261490;28;20118;-82
2023/05/23 09:53:37;;;;;;;5.63;2.67;;;;;;;;;;6246551;28;19929;-83
2023/05/23 09:56:42;;;;;;;3.92;2.60;;;;;;;;;;6271673;28;20049;-83
2023/05/23 09:59:53;;;;;;;4.75;2.03;;;;;;;;;;6283228;28;20115;-82
2023/05/23 10:03:11;;;;;;;2.40;1.90;;;;;;;;;;6247303;28;20050;-82
2023/05/23 10:06:41;;;;;;;1.55;1.45;;;;;;;;;;6237806;28;20170;-82
2023/05/23 10:09:53;;;;;;;2.25;1.48;;;;;;;;;;6250706;28;20048;-82
2023/05/23 10:13:01;;;;;;;1.55;1.35;;;;;;;;;;6254062;28;20041;-82
2023/05/23 10:16:33;;;;;;;1.30;1.20;;;;;;;;;;6251852;28;20041;-81
2023/05/23 10:19:47;;;;;;;1.35;1.23;;;;;;;;;;6242242;28;20481;-81
2023/05/23 10:22:48;;;;;;;1.80;1.40;;;;;;;;;;6255464;28;20576;-81
2023/05/23 10:25:51;;;;;;;1.98;1.60;;;;;;;;;;6259964;28;20045;-81
2023/05/23 10:28:54;;;;;;;2.28;1.58;;;;;;;;;;6256008;28;20048;-82
2023/05/23 10:31:56;;;;;;;2.47;1.70;;;;;;;;;;6255523;28;20040;-82
2023/05/23 10:35:23;;;;;;;2.67;1.65;;;;;;;;;;6272822;28;20037;-82
2023/05/23 10:38:35;;;;;;;4.43;1.85;;;;;;;;;;6263354;28;20049;-83
2023/05/23 10:41:59;;;;;;;3.50;2.05;;;;;;;;;;6274861;28;20044;-79
2023/05/23 10:45:17;;;;;;;2.20;2.00;;;;;;;;;;6259360;28;20049;-81
2023/05/23 10:48:28;;;;;;;4.28;2.30;;;;;;;;;;6235822;28;20041;-80
2023/05/23 10:51:37;;;;;;;2.85;2.20;;;;;;;;;;6255595;28;20396;-80
2023/05/23 10:54:42;;;;;;;3.00;2.70;;;;;;;;;;6255242;28;20045;-80
2023/05/23 10:57:44;;;;;;;3.17;2.60;;;;;;;;;;6261590;28;20041;-79
2023/05/23 11:00:53;;;;;;;3.00;2.58;;;;;;;;;;6280223;28;20055;-80
2023/05/23 11:03:55;;;;;;;4.10;3.20;;;;;;;;;;6270536;28;20045;-80
2023/05/23 11:06:57;;;;;;;4.03;3.00;;;;;;;;;;6256722;28;20129;-81
2023/05/23 11:10:10;;;;;;;3.20;2.70;;;;;;;;;;6254367;28;20060;-79
2023/05/23 11:13:12;;;;;;;4.50;3.05;;;;;;;;;;6273132;28;20115;-81
2023/05/23 11:16:24;;;;;;;4.57;2.83;;;;;;;;;;6269023;28;20048;-81
2023/05/23 11:19:27;;;;;;;6.07;3.17;;;;;;;;;;6273011;28;20043;-80
2023/05/23 11:22:30;;;;;;;6.10;3.72;;;;;;;;;;6277409;28;20099;-79
2023/05/23 11:25:47;;;;;;;5.10;3.80;;;;;;;;;;6269884;28;20060;-80
2023/05/23 11:28:55;;;;;;;6.53;4.18;;;;;;;;;;6275167;28;20044;-79
2023/05/23 11:31:57;;;;;;;6.55;4.32;;;;;;;;;;6277428;28;20045;-80
2023/05/23 11:35:03;;;;;;;7.80;4.32;;;;;;;;;;6277064;28;20067;-80
2023/05/23 11:38:05;;;;;;;7.05;4.40;;;;;;;;;;6282000;28;20110;-80
2023/05/23 11:41:07;;;;;;;6.05;4.25;;;;;;;;;;6284648;28;20048;-80
2023/05/23 11:44:12;;;;;;;7.88;4.93;;;;;;;;;;6263468;28;20045;-79
2023/05/23 11:47:14;;;;;;;6.68;4.95;;;;;;;;;;6273751;28;20075;-79
2023/05/23 11:50:16;;;;;;;8.95;5.10;;;;;;;;;;6285134;28;20045;-80
2023/05/23 11:53:20;;;;;;;10.77;6.22;;;;;;;;;;6273686;28;20037;-80
2023/05/23 11:56:23;;;;;;;9.23;6.45;;;;;;;;;;6261321;28;20045;-80
2023/05/23 11:59:25;;;;;;;9.43;6.53;;;;;;;;;;6252750;28;20053;-80
2023/05/23 12:02:27;;;;;;;8.75;5.82;;;;;;;;;;6284329;28;20039;-78
2023/05/23 12:05:29;;;;;;;8.40;5.68;;;;;;;;;;6283986;28;20376;-79
2023/05/23 12:08:30;;;;;;;8.80;6.07;;;;;;;;;;6244249;28;20049;-78
2023/05/23 12:11:34;;;;;;;10.77;5.88;;;;;;;;;;6258050;28;20083;-79
2023/05/23 12:14:38;;;;;;;9.10;5.63;;;;;;;;;;6259242;28;20045;-79
2023/05/23 12:17:46;;;;;;;9.00;5.95;;;;;;;;;;6272194;28;20045;-79
2023/05/23 12:20:50;;;;;;;9.18;6.03;;;;;;;;;;6260913;28;20049;-79
2023/05/23 12:23:52;;;;;;;7.40;5.80;;;;;;;;;;6256763;28;20063;-80
2023/05/23 12:26:57;;;;;;;10.82;5.70;;;;;;;;;;6239750;28;20045;-81
2023/05/23 12:30:08;;;;;;;9.52;5.35;;;;;;;;;;6271557;28;20044;-80
2023/05/23 12:33:10;;;;;;;15.95;6.07;;;;;;;;;;6261568;28;20159;-81
2023/05/23 12:36:20;;;;;;;9.25;6.68;;;;;;;;;;6258843;28;20057;-81
2023/05/23 12:39:27;;;;;;;8.73;5.88;;;;;;;;;;6252119;28;20045;-80
2023/05/23 12:42:28;;;;;;;9.23;5.95;;;;;;;;;;6255273;28;20069;-80
2023/05/23 12:45:33;;;;;;;9.43;6.22;;;;;;;;;;6250439;28;20049;-80
2023/05/23 12:48:35;;;;;;;9.23;6.15;;;;;;;;;;6258884;28;20044;-79
2023/05/23 12:51:36;;;;;;;10.00;5.88;;;;;;;;;;6259097;28;20041;-80
2023/05/23 12:54:38;;;;;;;6.85;5.00;;;;;;;;;;6259525;28;20526;-80
2023/05/23 12:57:40;;;;;;;6.93;4.95;;;;;;;;;;6265289;28;20044;-80
2023/05/23 13:00:41;;;;;;;6.78;5.00;;;;;;;;;;6257987;28;20576;-79
2023/05/23 13:03:43;;;;;;;7.22;4.20;;;;;;;;;;6259981;28;20041;-80
2023/05/23 13:06:45;;;;;;;8.43;4.43;;;;;;;;;;6246719;28;20037;-79
2023/05/23 13:09:47;;;;;;;6.40;4.60;;;;;;;;;;6260469;28;20064;-80
2023/05/23 13:12:48;;;;;;;5.43;4.25;;;;;;;;;;6258564;28;20049;-80
2023/05/23 13:15:50;;;;;;;7.25;4.60;;;;;;;;;;6237422;28;20471;-79
2023/05/23 13:18:52;;;;;;;5.72;4.13;;;;;;;;;;6259749;28;20038;-79
2023/05/23 13:21:54;;;;;;;5.18;4.00;;;;;;;;;;6251393;28;20045;-79
2023/05/23 13:24:56;;;;;;;5.10;3.92;;;;;;;;;;6261599;28;20132;-80
2023/05/23 13:27:57;;;;;;;5.60;3.42;;;;;;;;;;6262747;28;20442;-79
2023/05/23 13:31:00;;;;;;;5.63;3.72;;;;;;;;;;6257490;28;20106;-80
2023/05/23 13:34:02;;;;;;;5.15;3.30;;;;;;;;;;6257970;28;20045;-80
2023/05/23 13:37:04;;;;;;;4.80;3.33;;;;;;;;;;6256561;28;20178;-79
2023/05/23 13:40:15;;;;;;;6.35;3.53;;;;;;;;;;6253634;28;20171;-80
2023/05/23 13:43:17;;;;;;;5.53;3.80;;;;;;;;;;6254712;28;20045;-78
2023/05/23 13:46:18;;;;;;;7.07;4.03;;;;;;;;;;6274716;28;20075;-79
2023/05/23 13:49:20;;;;;;;8.40;3.60;;;;;;;;;;6258975;28;20043;-80
2023/05/23 13:52:22;;;;;;;8.35;4.32;;;;;;;;;;6256479;28;20521;-79
2023/05/23 13:55:23;;;;;;;7.18;3.90;;;;;;;;;;6261408;28;20052;-79
2023/05/23 13:58:25;;;;;;;6.57;3.92;;;;;;;;;;6260325;28;20053;-79
2023/05/23 14:01:28;;;;;;;6.72;3.92;;;;;;;;;;6256959;28;20136;-79
2023/05/23 14:04:31;;;;;;;7.22;4.55;;;;;;;;;;6267548;28;20045;-81
2023/05/23 14:07:33;;;;;;;7.50;5.05;;;;;;;;;;6256946;28;20122;-80
2023/05/23 14:10:35;;;;;;;8.13;4.97;;;;;;;;;;6260458;28;20108;-81
2023/05/23 14:13:36;;;;;;;6.80;4.38;;;;;;;;;;6258770;28;20041;-80
2023/05/23 14:16:38;;;;;;;6.78;4.78;;;;;;;;;;6261897;28;20407;-80
2023/05/23 14:19:40;;;;;;;6.20;4.40;;;;;;;;;;6262283;28;20045;-81
2023/05/23 14:22:41;;;;;;;5.93;3.90;;;;;;;;;;6251632;28;20037;-81
2023/05/23 14:25:44;;;;;;;5.85;3.38;;;;;;;;;;6254272;28;20057;-82
2023/05/23 14:28:45;;;;;;;5.45;3.70;;;;;;;;;;6225306;28;20105;-82
2023/05/23 14:31:47;;;;;;;5.43;3.03;;;;;;;;;;6251403;28;20571;-81
2023/05/23 14:34:49;;;;;;;4.90;3.25;;;;;;;;;;6252896;28;20045;-80
2023/05/23 14:37:50;;;;;;;5.78;2.83;;;;;;;;;;6249942;28;20066;-81
2023/05/23 14:40:53;;;;;;;4.55;3.10;;;;;;;;;;6264856;28;20122;-82
2023/05/23 14:43:55;;;;;;;4.40;2.95;;;;;;;;;;6250427;28;20049;-81
2023/05/23 14:46:56;;;;;;;4.45;2.95;;;;;;;;;;6252863;28;20075;-81
2023/05/23 14:49:59;;;;;;;5.68;3.53;;;;;;;;;;6269777;28;20114;-81
2023/05/23 14:53:01;;;;;;;5.37;3.83;;;;;;;;;;6252923;28;20082;-81
2023/05/23 14:56:03;;;;;;;8.13;3.77;;;;;;;;;;6254013;28;20044;-82
2023/05/23 14:59:04;;;;;;;9.13;4.28;;;;;;;;;;6260319;28;20126;-79
2023/05/23 15:02:06;;;;;;;9.40;4.10;;;;;;;;;;6262931;28;20041;-78
2023/05/23 15:05:09;;;;;;;7.15;4.15;;;;;;;;;;6240348;28;20053;-80
2023/05/23 15:08:11;;;;;;;7.53;4.10;;;;;;;;;;6255727;28;20044;-80
2023/05/23 15:11:12;;;;;;;6.57;3.80;;;;;;;;;;6255340;28;20129;-80
2023/05/23 15:14:15;;;;;;;5.32;3.70;;;;;;;;;;6247552;28;20045;-80
2023/05/23 15:17:21;;;;;;;;;;;;;;;;;;6253743;28;20080;-80
2023/05/23 15:20:25;;;;;;;7.60;3.80;;;;;;;;;;6265091;28;20007;-79
2023/05/23 15:23:27;;;;;;;9.68;4.65;;;;;;;;;;6254848;28;20053;-80
2023/05/23 15:26:28;;;;;;;9.05;4.10;;;;;;;;;;6252360;28;20048;-79
2023/05/23 15:29:32;;;;;;;7.75;4.40;;;;;;;;;;6255467;28;20077;-81
2023/05/23 15:32:34;;;;;;;6.68;3.35;;;;;;;;;;6255280;28;20064;-79
2023/05/23 15:35:35;;;;;;;6.18;3.63;;;;;;;;;;6245171;28;20519;-78
2023/05/23 15:38:37;;;;;;;6.68;3.50;;;;;;;;;;6238365;28;20480;-79
2023/05/23 15:41:39;;;;;;;9.32;3.63;;;;;;;;;;6249879;28;20048;-80
2023/05/23 15:44:41;;;;;;;11.05;3.40;;;;;;;;;;6254479;28;20184;-78
2023/05/23 15:47:42;;;;;;;5.60;3.17;;;;;;;;;;6255053;28;20581;-79
2023/05/23 15:50:44;;;;;;;5.32;3.28;;;;;;;;;;6253772;28;20128;-79
2023/05/23 15:53:46;;;;;;;7.23;3.27;;;;;;;;;;6251665;28;20508;-78
2023/05/23 15:57:02;;;;;;;9.27;3.50;;;;;;;;;;6252339;28;20399;-79
2023/05/23 16:00:04;;;;;;;6.32;3.35;;;;;;;;;;6249971;28;20049;-78
2023/05/23 16:03:12;;;;;;;7.15;3.45;;;;;;;;;;6254348;28;20511;-79
2023/05/23 16:06:14;;;;;;;7.68;3.60;;;;;;;;;;6250658;28;20132;-79
2023/05/23 16:09:16;;;;;;;8.00;3.58;;;;;;;;;;6250566;28;20172;-79
2023/05/23 16:12:17;;;;;;;6.05;3.40;;;;;;;;;;6251397;28;20078;-80
2023/05/23 16:15:19;;;;;;;7.28;3.40;;;;;;;;;;6253062;28;20040;-79
2023/05/23 16:18:21;;;;;;;6.40;3.42;;;;;;;;;;6267522;28;20037;-80
2023/05/23 16:21:24;;;;;;;7.40;3.15;;;;;;;;;;6250673;28;20530;-80
2023/05/23 16:24:26;;;;;;;6.90;3.33;;;;;;;;;;6249701;28;20729;-80
2023/05/23 16:27:28;;;;;;;6.47;2.90;;;;;;;;;;6269831;28;20531;-81
2023/05/23 16:30:30;;;;;;;7.53;3.20;;;;;;;;;;6250799;28;20551;-78
2023/05/23 16:33:32;;;;;;;7.15;3.33;;;;;;;;;;6256416;28;20041;-78
2023/05/23 16:36:33;;;;;;;7.18;2.80;;;;;;;;;;6248441;28;20132;-79
2023/05/23 16:39:35;;;;;;;8.88;3.10;;;;;;;;;;6262210;28;20142;-79
2023/05/23 16:42:37;;;;;;;7.93;2.97;;;;;;;;;;6271578;28;20054;-81
2023/05/23 16:45:39;;;;;;;7.53;3.40;;;;;;;;;;6251862;28;20041;-81
2023/05/23 16:48:42;;;;;;;6.78;3.35;;;;;;;;;;6240583;28;20052;-81
2023/05/23 16:51:44;;;;;;;6.80;3.03;;;;;;;;;;6255523;28;20068;-80
2023/05/23 16:54:49;;;;;;;7.38;3.08;;;;;;;;;;6266775;28;20039;-80
2023/05/23 16:57:51;;;;;;;7.75;3.33;;;;;;;;;;6241948;28;20068;-76
2023/05/23 17:00:52;;;;;;;7.15;3.47;;;;;;;;;;6240264;28;20514;-79
2023/05/23 17:03:55;;;;;;;8.82;3.47;;;;;;;;;;6249834;28;20247;-78
2023/05/23 17:06:57;;;;;;;;;;;;;;;;;;6248299;28;20649;-80
2023/05/23 17:09:59;;;;;;;9.32;3.20;;;;;;;;;;6250683;28;19971;-78
2023/05/23 17:13:01;;;;;;;7.10;3.25;;;;;;;;;;6251847;28;20056;-81
2023/05/23 17:16:03;;;;;;;7.63;3.00;;;;;;;;;;6248082;28;20051;-78
2023/05/23 17:19:05;;;;;;;5.85;2.88;;;;;;;;;;6259071;28;20051;-79
2023/05/23 17:22:06;;;;;;;8.45;3.60;;;;;;;;;;6254047;28;20074;-79
2023/05/23 17:25:08;;;;;;;8.52;3.20;;;;;;;;;;6249365;28;20442;-82
2023/05/23 17:28:10;;;;;;;8.02;3.15;;;;;;;;;;6252624;28;20082;-82
2023/05/23 17:31:12;;;;;;;7.28;3.30;;;;;;;;;;6255764;28;20069;-81
2023/05/23 17:34:14;;;;;;;10.32;3.65;;;;;;;;;;6256726;28;20053;-81
2023/05/23 17:37:16;;;;;;;10.63;3.42;;;;;;;;;;6253824;28;20043;-82
2023/05/23 17:40:18;;;;;;;5.13;3.38;;;;;;;;;;6267791;28;20065;-81
2023/05/23 17:43:20;;;;;;;11.45;3.03;;;;;;;;;;6253147;28;20048;-80
2023/05/23 17:46:22;;;;;;;8.05;2.70;;;;;;;;;;6250906;28;20579;-80
2023/05/23 17:49:24;;;;;;;7.57;3.25;;;;;;;;;;6244569;28;20725;-80
2023/05/23 17:52:25;;;;;;;8.82;3.38;;;;;;;;;;6265882;28;20195;-80
2023/05/23 17:55:27;;;;;;;8.88;2.85;;;;;;;;;;6254302;28;20208;-79
2023/05/23 17:58:29;;;;;;;8.30;2.75;;;;;;;;;;6235369;28;20680;-79
2023/05/23 18:01:32;;;;;;;8.32;3.13;;;;;;;;;;6253208;28;20071;-79
2023/05/23 18:04:34;;;;;;;5.82;2.75;;;;;;;;;;6248214;28;20069;-79
2023/05/23 18:07:36;;;;;;;10.90;3.28;;;;;;;;;;6245921;28;20075;-79
2023/05/23 18:10:38;;;;;;;11.10;3.10;;;;;;;;;;6242701;28;20060;-80
2023/05/23 18:13:41;;;;;;;7.45;3.05;;;;;;;;;;6251894;28;20036;-81
2023/05/23 18:16:43;;;;;;;7.85;2.47;;;;;;;;;;6252847;28;20048;-81